Time;durP1;ratioP1;P1;durP2;ratioP2;P2;SDS_P1;SDS_P2;PMS_P1;PMS_P2;Temp;Humidity;BMP_temperature;BMP_pressure;BME280_temperature;BME280_humidity;BME280_pressure;Samples;Min_cycle;Max_cycle;Signal;HPM_P1;HPM_P2
2022/02/03 00:04:44;;;;;;;31.48;15.88;;;;;;;;;;4399917;32;20026;-68
2022/02/03 00:07:14;;;;;;;32.75;14.60;;;;;;;;;;4407553;32;20022;-69
2022/02/03 00:25:46;;;;;;;;;;;;;;;;;;4398674;32;20035;-68
2022/02/03 00:28:21;;;;;;;31.08;15.55;;;;;;;;;;4392818;32;19952;-69
2022/02/03 00:33:30;;;;;;;36.55;17.90;;;;;;;;;;4407924;32;20054;-69
2022/02/03 00:49:29;;;;;;;41.85;20.95;;;;;;;;;;4398999;32;20408;-69
2022/02/03 00:51:58;;;;;;;37.05;20.73;;;;;;;;;;4392306;32;20058;-69
2022/02/03 00:54:24;;;;;;;36.97;19.37;;;;;;;;;;4392189;32;20103;-69
2022/02/03 00:56:54;;;;;;;39.75;20.85;;;;;;;;;;4407290;32;20027;-69
2022/02/03 00:59:27;;;;;;;38.05;21.15;;;;;;;;;;4407217;32;20026;-69
2022/02/03 01:01:55;;;;;;;41.13;21.87;;;;;;;;;;4403143;32;20015;-69
2022/02/03 01:04:22;;;;;;;37.92;20.48;;;;;;;;;;4391188;32;20328;-70
2022/02/03 01:06:53;;;;;;;42.92;23.83;;;;;;;;;;4393268;32;20023;-70
2022/02/03 01:09:20;;;;;;;37.25;21.60;;;;;;;;;;4392667;32;20053;-70
2022/02/03 01:11:50;;;;;;;41.80;22.70;;;;;;;;;;4396473;32;20108;-68
2022/02/03 01:17:24;;;;;;;42.00;25.10;;;;;;;;;;4375259;32;20535;-69
2022/02/03 01:44:33;;;;;;;68.93;41.85;;;;;;;;;;4404285;32;20384;-68
2022/02/03 01:47:08;;;;;;;61.53;39.92;;;;;;;;;;4407019;32;20060;-69
2022/02/03 01:51:39;;;;;;;72.65;41.95;;;;;;;;;;4407103;32;20064;-68
2022/02/03 01:52:24;;;;;;;64.53;40.55;;;;;;;;;;4402512;32;20073;-68
2022/02/03 01:54:49;;;;;;;;;;;;;;;;;;4392245;32;20054;-68
2022/02/03 01:57:17;;;;;;;69.30;39.38;;;;;;;;;;4405148;32;19969;-69
2022/02/03 01:59:48;;;;;;;64.03;39.08;;;;;;;;;;4390634;32;20478;-68
2022/02/03 02:02:13;;;;;;;58.38;36.58;;;;;;;;;;4388520;32;20053;-69
2022/02/03 02:04:38;;;;;;;;;;;;;;;;;;4390298;32;20015;-69
2022/02/03 02:07:19;;;;;;;64.60;36.92;;;;;;;;;;4410363;32;19940;-69
2022/02/03 02:10:05;;;;;;;55.17;36.50;;;;;;;;;;4402786;32;20501;-68
2022/02/03 02:12:57;;;;;;;52.00;33.63;;;;;;;;;;4396808;32;20022;-69
2022/02/03 02:39:51;;;;;;;36.28;21.45;;;;;;;;;;4392454;32;20051;-68
2022/02/03 02:42:35;;;;;;;38.93;20.27;;;;;;;;;;4398090;32;20076;-69
2022/02/03 02:45:06;;;;;;;35.88;19.77;;;;;;;;;;4395621;32;20026;-68
2022/02/03 02:47:53;;;;;;;35.72;18.50;;;;;;;;;;4395763;32;20073;-68
2022/02/03 02:50:29;;;;;;;32.80;18.83;;;;;;;;;;4401021;32;20404;-70
2022/02/03 02:53:09;;;;;;;34.92;17.98;;;;;;;;;;4395080;32;20077;-70
2022/02/03 02:55:51;;;;;;;32.47;17.55;;;;;;;;;;4401766;32;20031;-69
2022/02/03 02:58:56;;;;;;;43.35;17.83;;;;;;;;;;4397156;32;20034;-68
2022/02/03 03:01:59;;;;;;;;;;;;;;;;;;4395457;32;20069;-69
2022/02/03 03:28:52;;;;;;;26.98;14.82;;;;;;;;;;4406351;32;20019;-68
2022/02/03 03:29:12;;;;;;;29.23;14.32;;;;;;;;;;4393496;32;20065;-69
2022/02/03 03:36:56;;;;;;;33.38;17.20;;;;;;;;;;4392502;32;20027;-70
2022/02/03 03:39:28;;;;;;;33.85;18.10;;;;;;;;;;4402372;32;20052;-68
2022/02/03 03:41:55;;;;;;;31.20;16.23;;;;;;;;;;4406750;32;20083;-70
2022/02/03 03:44:21;;;;;;;29.92;17.33;;;;;;;;;;4408755;32;20049;-68
2022/02/03 03:46:47;;;;;;;33.17;17.23;;;;;;;;;;4407526;32;20018;-69
2022/02/03 03:49:12;;;;;;;;;;;;;;;;;;4400204;32;20041;-68
2022/02/03 03:51:47;;;;;;;33.08;18.02;;;;;;;;;;4401192;32;19933;-69
2022/02/03 03:54:20;;;;;;;34.80;17.17;;;;;;;;;;4407895;32;20126;-69
2022/02/03 03:57:07;;;;;;;29.42;16.55;;;;;;;;;;4406650;32;20038;-68
2022/02/03 04:36:45;;;;;;;15.40;9.65;;;;;;;;;;4408158;32;20115;-69
2022/02/03 04:41:47;;;;;;;17.10;9.90;;;;;;;;;;4406450;32;20096;-69
2022/02/03 04:44:44;;;;;;;16.00;8.82;;;;;;;;;;4392715;32;20117;-69
2022/02/03 05:01:22;;;;;;;18.40;8.95;;;;;;;;;;4406962;32;20026;-70
2022/02/03 05:04:04;;;;;;;15.82;7.22;;;;;;;;;;4392330;32;20408;-69
2022/02/03 05:09:56;;;;;;;15.27;6.95;;;;;;;;;;4394904;32;20038;-69
2022/02/03 05:13:30;;;;;;;18.08;6.87;;;;;;;;;;4391543;32;20310;-69
2022/02/03 05:21:33;;;;;;;17.45;6.78;;;;;;;;;;4391683;32;20463;-69
2022/02/03 05:43:59;;;;;;;18.00;6.25;;;;;;;;;;4398244;32;20072;-69
2022/02/03 06:05:15;;;;;;;;;;;;;;;;;;4395227;32;20372;-70
2022/02/03 06:08:03;;;;;;;13.73;5.10;;;;;;;;;;4394783;32;19967;-69
2022/02/03 06:13:17;;;;;;;15.35;5.07;;;;;;;;;;4402288;32;20049;-70
2022/02/03 06:16:05;;;;;;;10.25;5.25;;;;;;;;;;4390666;32;20019;-70
2022/02/03 06:21:26;;;;;;;19.55;5.40;;;;;;;;;;4391677;32;20049;-70
2022/02/03 06:29:08;;;;;;;14.90;5.68;;;;;;;;;;4399160;32;20041;-70
2022/02/03 06:31:34;;;;;;;13.57;5.40;;;;;;;;;;4400720;32;20027;-69
2022/02/03 06:33:59;;;;;;;;;;;;;;;;;;4391513;32;20407;-71
2022/02/03 06:36:24;;;;;;;12.65;4.62;;;;;;;;;;4389250;32;20265;-70
2022/02/03 06:38:49;;;;;;;;;;;;;;;;;;4392905;32;20472;-69
2022/02/03 06:41:14;;;;;;;15.50;6.90;;;;;;;;;;4394520;32;19967;-70
2022/02/03 06:43:42;;;;;;;;;;;;;;;;;;4392765;32;20172;-70
2022/02/03 06:46:08;;;;;;;14.77;6.25;;;;;;;;;;4392190;32;19934;-69
2022/02/03 06:48:35;;;;;;;;;;;;;;;;;;4391558;32;20085;-70
2022/02/03 06:51:08;;;;;;;26.15;7.37;;;;;;;;;;4392007;32;19942;-69
2022/02/03 06:53:37;;;;;;;17.20;6.87;;;;;;;;;;4393767;32;20044;-70
2022/02/03 06:56:11;;;;;;;17.02;6.50;;;;;;;;;;4393390;32;20064;-70
2022/02/03 06:58:42;;;;;;;17.33;7.00;;;;;;;;;;4392541;32;20091;-70
2022/02/03 07:01:22;;;;;;;12.30;6.68;;;;;;;;;;4393734;32;20023;-70
2022/02/03 07:03:55;;;;;;;20.48;6.55;;;;;;;;;;4389839;32;20026;-70
2022/02/03 07:06:20;;;;;;;16.90;7.78;;;;;;;;;;4401237;32;20409;-69
2022/02/03 07:08:47;;;;;;;;;;;;;;;;;;4405084;32;20057;-70
2022/02/03 07:11:17;;;;;;;15.95;8.23;;;;;;;;;;4406112;32;19933;-70
2022/02/03 07:13:42;;;;;;;15.05;7.12;;;;;;;;;;4404663;32;20038;-69
2022/02/03 07:16:07;;;;;;;;;;;;;;;;;;4408732;32;20048;-70
2022/02/03 07:18:33;;;;;;;22.73;8.18;;;;;;;;;;4406731;32;20286;-69
2022/02/03 07:20:58;;;;;;;;;;;;;;;;;;4406394;32;20019;-71
2022/02/03 07:23:23;;;;;;;22.08;9.00;;;;;;;;;;4408394;32;19938;-69
2022/02/03 07:25:48;;;;;;;;;;;;;;;;;;4408198;32;20417;-70
2022/02/03 07:28:14;;;;;;;16.55;8.43;;;;;;;;;;4405025;32;19937;-70
2022/02/03 07:30:39;;;;;;;;;;;;;;;;;;4407412;32;20048;-70
2022/02/03 07:33:06;;;;;;;23.92;10.57;;;;;;;;;;4406419;32;19983;-71
2022/02/03 07:35:33;;;;;;;22.37;10.82;;;;;;;;;;4407025;32;20057;-69
2022/02/03 07:38:01;;;;;;;21.58;11.43;;;;;;;;;;4406955;32;20031;-69
2022/02/03 07:40:27;;;;;;;15.20;10.43;;;;;;;;;;4408561;32;20388;-69
2022/02/03 07:42:54;;;;;;;;;;;;;;;;;;4406994;32;20022;-70
2022/02/03 07:45:20;;;;;;;23.52;12.02;;;;;;;;;;4407049;32;19953;-69
2022/02/03 07:47:46;;;;;;;21.83;11.15;;;;;;;;;;4408037;32;20065;-70
2022/02/03 07:50:12;;;;;;;20.83;13.07;;;;;;;;;;4405201;32;20025;-70
2022/02/03 07:52:37;;;;;;;;;;;;;;;;;;4406892;32;20391;-69
2022/02/03 07:55:02;;;;;;;26.00;13.25;;;;;;;;;;4406440;32;19945;-69
2022/02/03 07:57:27;;;;;;;;;;;;;;;;;;4407186;32;20114;-70
2022/02/03 07:59:55;;;;;;;22.15;13.02;;;;;;;;;;4407884;32;19934;-71
2022/02/03 08:02:20;;;;;;;23.30;14.63;;;;;;;;;;4408049;32;20481;-69
2022/02/03 08:04:47;;;;;;;;;;;;;;;;;;4405243;32;20022;-70
2022/02/03 08:07:15;;;;;;;26.17;16.27;;;;;;;;;;4407080;32;19956;-69
2022/02/03 08:12:38;;;;;;;;;;;;;;;;;;4380951;32;20076;-69
2022/02/03 08:15:04;;;;;;;35.58;19.62;;;;;;;;;;4405476;32;19941;-70
2022/02/03 08:17:41;;;;;;;;;;;;;;;;;;4407963;32;20018;-70
2022/02/03 08:20:13;;;;;;;33.58;20.37;;;;;;;;;;4406089;32;20051;-69
2022/02/03 08:22:44;;;;;;;34.55;20.05;;;;;;;;;;4405021;32;20068;-69
2022/02/03 08:25:20;;;;;;;37.88;22.23;;;;;;;;;;4406177;32;20049;-69
2022/02/03 08:28:26;;;;;;;36.17;21.58;;;;;;;;;;4407297;32;20080;-69
2022/02/03 08:30:57;;;;;;;52.20;25.77;;;;;;;;;;4406457;32;20040;-69
2022/02/03 08:33:22;;;;;;;44.80;25.33;;;;;;;;;;4407708;32;20395;-68
2022/02/03 08:35:50;;;;;;;;;;;;;;;;;;4408269;32;20045;-69
2022/02/03 08:38:22;;;;;;;54.75;29.17;;;;;;;;;;4406236;32;20012;-69
2022/02/03 08:43:16;;;;;;;44.30;25.70;;;;;;;;;;4407080;32;20467;-69
2022/02/03 08:45:41;;;;;;;;;;;;;;;;;;4406208;32;20059;-69
2022/02/03 08:48:06;;;;;;;43.22;22.27;;;;;;;;;;4405781;32;20020;-69
2022/02/03 08:50:33;;;;;;;;;;;;;;;;;;4406408;32;20106;-69
2022/02/03 08:53:06;;;;;;;43.30;25.77;;;;;;;;;;4405548;32;20290;-69
2022/02/03 08:55:46;;;;;;;48.08;25.88;;;;;;;;;;4406139;32;20117;-68
2022/02/03 09:36:31;;;;;;;53.92;29.42;;;;;;;;;;4407204;32;20023;-70
2022/02/03 09:39:05;;;;;;;53.10;28.48;;;;;;;;;;4405299;32;20014;-68
2022/02/03 09:55:13;;;;;;;41.60;23.95;;;;;;;;;;4405308;32;20043;-69
2022/02/03 09:57:53;;;;;;;36.65;22.92;;;;;;;;;;4405184;32;20120;-69
2022/02/03 10:00:32;;;;;;;46.35;23.02;;;;;;;;;;4403528;32;20022;-68
2022/02/03 10:02:59;;;;;;;44.47;24.12;;;;;;;;;;4404573;32;20096;-69
2022/02/03 10:05:34;;;;;;;37.97;21.08;;;;;;;;;;4404470;32;20049;-70
2022/02/03 10:08:00;;;;;;;45.95;22.25;;;;;;;;;;4406165;32;20041;-68
2022/02/03 10:10:25;;;;;;;;;;;;;;;;;;4406078;32;20057;-69
2022/02/03 10:12:50;;;;;;;57.15;24.95;;;;;;;;;;4404920;32;19985;-69
2022/02/03 10:15:17;;;;;;;;;;;;;;;;;;4404199;32;20071;-69
2022/02/03 10:17:45;;;;;;;50.45;22.98;;;;;;;;;;4405209;32;19941;-69
2022/02/03 10:20:13;;;;;;;44.15;20.77;;;;;;;;;;4404644;32;20022;-70
2022/02/03 10:22:53;;;;;;;40.25;18.85;;;;;;;;;;4404194;32;20050;-70
2022/02/03 10:25:26;;;;;;;42.35;20.85;;;;;;;;;;4406253;32;20042;-69
2022/02/03 10:28:13;;;;;;;36.17;16.92;;;;;;;;;;4405471;32;20098;-67
2022/02/03 10:30:47;;;;;;;37.00;18.10;;;;;;;;;;4405304;32;20490;-69
2022/02/03 10:33:13;;;;;;;36.53;19.02;;;;;;;;;;4403195;32;20014;-70
2022/02/03 10:41:16;;;;;;;36.87;16.80;;;;;;;;;;4405583;32;20046;-69
2022/02/03 11:05:18;;;;;;;26.23;15.98;;;;;;;;;;4405104;32;20388;-69
2022/02/03 11:10:34;;;;;;;29.35;14.73;;;;;;;;;;4405768;32;20035;-68
2022/02/03 11:13:01;;;;;;;30.27;14.63;;;;;;;;;;4404435;32;20461;-68
2022/02/03 11:15:27;;;;;;;24.30;16.10;;;;;;;;;;4403513;32;20052;-69
2022/02/03 11:17:52;;;;;;;;;;;;;;;;;;4403009;32;20015;-68
2022/02/03 11:20:18;;;;;;;20.60;14.57;;;;;;;;;;4404452;32;19934;-68
2022/02/03 11:26:01;;;;;;;26.23;14.27;;;;;;;;;;4381548;32;20072;-69
2022/02/03 11:28:47;;;;;;;22.90;12.52;;;;;;;;;;4402578;32;20341;-68
2022/02/03 11:47:34;;;;;;;25.50;16.65;;;;;;;;;;4365679;32;20067;-68
2022/02/03 11:50:26;;;;;;;27.77;15.43;;;;;;;;;;4393356;32;20045;-70
2022/02/03 11:56:08;;;;;;;35.15;17.17;;;;;;;;;;4376272;32;20092;-69
2022/02/03 12:12:23;;;;;;;38.53;21.20;;;;;;;;;;4391958;32;20044;-69
2022/02/03 12:17:46;;;;;;;44.08;22.02;;;;;;;;;;4391626;32;20022;-68
2022/02/03 12:20:21;;;;;;;43.03;22.35;;;;;;;;;;4392924;32;20026;-68
2022/02/03 12:23:10;;;;;;;44.33;25.10;;;;;;;;;;4392615;32;20015;-69
2022/02/03 12:25:47;;;;;;;39.78;23.52;;;;;;;;;;4391529;32;20295;-68
2022/02/03 12:28:21;;;;;;;47.40;24.42;;;;;;;;;;4391523;32;20022;-68
2022/02/03 12:38:53;;;;;;;43.55;22.98;;;;;;;;;;4392340;32;20083;-67
2022/02/03 12:41:22;;;;;;;40.67;21.15;;;;;;;;;;4391851;32;20152;-67
2022/02/03 12:43:55;;;;;;;32.35;19.37;;;;;;;;;;4392332;32;20349;-68
2022/02/03 12:46:20;;;;;;;37.85;20.12;;;;;;;;;;4390778;32;20056;-67
2022/02/03 12:48:45;;;;;;;;;;;;;;;;;;4392855;32;20050;-67
2022/02/03 12:51:10;;;;;;;38.53;21.35;;;;;;;;;;4391790;32;19938;-68
2022/02/03 12:53:36;;;;;;;;;;;;;;;;;;4392073;32;20019;-66
2022/02/03 12:56:06;;;;;;;41.03;22.65;;;;;;;;;;4390613;32;20003;-68
2022/02/03 12:58:36;;;;;;;36.58;21.52;;;;;;;;;;4390727;32;20078;-68
2022/02/03 13:01:11;;;;;;;35.42;21.15;;;;;;;;;;4391272;32;20051;-68
2022/02/03 13:03:38;;;;;;;35.63;21.35;;;;;;;;;;4391862;32;20019;-67
2022/02/03 13:06:06;;;;;;;36.83;20.10;;;;;;;;;;4391511;32;20053;-68
2022/02/03 13:08:35;;;;;;;33.15;19.83;;;;;;;;;;4392101;32;20094;-69
2022/02/03 13:11:06;;;;;;;38.63;19.87;;;;;;;;;;4390810;32;20027;-67
2022/02/03 13:13:50;;;;;;;34.13;20.02;;;;;;;;;;4406358;32;20094;-68
2022/02/03 13:16:16;;;;;;;37.92;21.00;;;;;;;;;;4406686;32;20117;-67
2022/02/03 13:18:48;;;;;;;;;;;;;;;;;;4407279;32;20333;-68
2022/02/03 13:21:21;;;;;;;26.98;18.85;;;;;;;;;;4407376;32;19934;-68
2022/02/03 13:23:52;;;;;;;33.70;21.00;;;;;;;;;;4406388;32;20133;-68
2022/02/03 13:26:23;;;;;;;35.95;19.48;;;;;;;;;;4405327;32;20093;-67
2022/02/03 13:28:58;;;;;;;36.03;19.17;;;;;;;;;;4407199;32;20441;-69
2022/02/03 13:31:33;;;;;;;31.85;18.73;;;;;;;;;;4403393;32;20018;-68
2022/02/03 13:34:13;;;;;;;23.38;16.42;;;;;;;;;;4406148;32;20458;-68
2022/02/03 13:36:44;;;;;;;25.95;17.77;;;;;;;;;;4405543;32;20022;-68
2022/02/03 13:39:22;;;;;;;32.83;16.33;;;;;;;;;;4403730;32;20090;-68
2022/02/03 13:41:50;;;;;;;26.70;15.82;;;;;;;;;;4403947;32;20071;-68
2022/02/03 13:44:17;;;;;;;25.88;16.80;;;;;;;;;;4405862;32;20390;-68
2022/02/03 13:46:43;;;;;;;29.75;17.37;;;;;;;;;;4405334;32;20388;-68
2022/02/03 13:49:08;;;;;;;;;;;;;;;;;;4405508;32;20022;-69
2022/02/03 13:51:39;;;;;;;29.63;17.55;;;;;;;;;;4404995;32;20266;-68
2022/02/03 13:54:22;;;;;;;28.12;18.67;;;;;;;;;;4405902;32;20487;-68
2022/02/03 14:21:59;;;;;;;27.05;17.40;;;;;;;;;;4404218;32;20428;-68
2022/02/03 14:26:53;;;;;;;26.98;16.27;;;;;;;;;;4399923;32;20022;-69
2022/02/03 14:29:28;;;;;;;;;;;;;;;;;;4390351;32;20026;-69
2022/02/03 14:32:05;;;;;;;22.13;16.77;;;;;;;;;;4394653;32;19929;-69
2022/02/03 14:34:33;;;;;;;22.20;17.30;;;;;;;;;;4399612;32;20341;-69
2022/02/03 14:37:06;;;;;;;27.52;17.73;;;;;;;;;;4402837;32;20053;-67
2022/02/03 14:42:21;;;;;;;21.98;15.82;;;;;;;;;;4388106;32;20023;-69
2022/02/03 14:44:46;;;;;;;;;;;;;;;;;;4389822;32;20058;-69
2022/02/03 14:47:11;;;;;;;19.02;15.75;;;;;;;;;;4391079;32;19992;-69
2022/02/03 14:49:40;;;;;;;;;;;;;;;;;;4390875;32;20149;-68
2022/02/03 14:52:13;;;;;;;19.37;15.02;;;;;;;;;;4391735;32;19961;-69
2022/02/03 15:00:08;;;;;;;22.17;14.48;;;;;;;;;;4394619;32;20690;-69
2022/02/03 15:02:33;;;;;;;21.23;14.45;;;;;;;;;;4407155;32;20020;-69
2022/02/03 15:05:06;;;;;;;;;;;;;;;;;;4393259;32;20046;-69
2022/02/03 15:07:33;;;;;;;23.30;14.85;;;;;;;;;;4393813;32;19952;-70
2022/02/03 15:15:27;;;;;;;22.70;14.27;;;;;;;;;;4393281;32;20042;-70
2022/02/03 15:17:52;;;;;;;;;;;;;;;;;;4393682;32;20046;-70
2022/02/03 15:20:17;;;;;;;23.02;13.93;;;;;;;;;;4390847;32;19997;-69
2022/02/03 15:22:42;;;;;;;;;;;;;;;;;;4394752;32;20122;-69
2022/02/03 15:25:07;;;;;;;21.58;13.50;;;;;;;;;;4408634;32;19949;-69
2022/02/03 15:27:32;;;;;;;;;;;;;;;;;;4408199;32;20118;-70
2022/02/03 15:30:02;;;;;;;22.23;14.77;;;;;;;;;;4408327;32;19971;-69
2022/02/03 15:32:27;;;;;;;21.75;14.65;;;;;;;;;;4402907;32;20235;-69
2022/02/03 15:34:54;;;;;;;;;;;;;;;;;;4399775;32;20140;-70
2022/02/03 15:37:20;;;;;;;24.42;14.57;;;;;;;;;;4408386;32;19988;-68
2022/02/03 15:39:51;;;;;;;21.10;12.85;;;;;;;;;;4407244;32;20087;-69
2022/02/03 15:42:20;;;;;;;18.42;13.32;;;;;;;;;;4408012;32;20015;-69
2022/02/03 15:44:49;;;;;;;18.45;12.85;;;;;;;;;;4407046;32;20065;-68
2022/02/03 15:47:29;;;;;;;22.23;12.48;;;;;;;;;;4408127;32;20030;-70
2022/02/03 15:58:45;;;;;;;20.88;11.60;;;;;;;;;;4393170;32;20057;-70
2022/02/03 16:01:12;;;;;;;19.77;12.57;;;;;;;;;;4391116;32;20018;-69
2022/02/03 16:03:46;;;;;;;18.02;12.30;;;;;;;;;;4391515;32;20136;-69
2022/02/03 16:17:10;;;;;;;19.77;14.15;;;;;;;;;;4407429;32;20037;-70
2022/02/03 16:20:04;;;;;;;19.37;12.52;;;;;;;;;;4398496;32;20023;-70
2022/02/03 16:25:03;;;;;;;17.02;11.75;;;;;;;;;;4398288;32;20054;-68
2022/02/03 16:41:44;;;;;;;18.70;12.73;;;;;;;;;;4391750;32;20041;-70
2022/02/03 16:50:22;;;;;;;16.40;11.70;;;;;;;;;;4390327;32;20078;-69
2022/02/03 16:52:25;;;;;;;19.65;15.18;;;;;;;;;;4407349;32;20041;-70
2022/02/03 16:54:51;;;;;;;20.12;14.45;;;;;;;;;;4406510;32;20152;-69
2022/02/03 16:57:21;;;;;;;19.25;14.20;;;;;;;;;;4406361;32;20018;-69
2022/02/03 16:59:54;;;;;;;17.80;15.10;;;;;;;;;;4406721;32;20375;-70
2022/02/03 17:02:20;;;;;;;22.85;16.67;;;;;;;;;;4405750;32;20015;-69
2022/02/03 17:04:45;;;;;;;;;;;;;;;;;;4403421;32;20119;-70
2022/02/03 17:07:10;;;;;;;19.83;14.48;;;;;;;;;;4400113;32;19945;-69
2022/02/03 17:09:38;;;;;;;;;;;;;;;;;;4402634;32;20569;-69
2022/02/03 17:12:03;;;;;;;;;;;;;;;;;;4407089;32;19982;-69
2022/02/03 17:14:28;;;;;;;23.45;15.95;;;;;;;;;;4406655;32;20257;-69
2022/02/03 17:16:53;;;;;;;;;;;;;;;;;;4401106;32;20015;-69
2022/02/03 17:19:21;;;;;;;20.83;15.38;;;;;;;;;;4394277;32;19985;-69
2022/02/03 17:21:46;;;;;;;19.73;15.25;;;;;;;;;;4390468;32;20491;-68
2022/02/03 17:24:11;;;;;;;;;;;;;;;;;;4392275;32;20018;-70
2022/02/03 17:26:49;;;;;;;23.58;16.42;;;;;;;;;;4391586;32;19941;-69
2022/02/03 17:29:21;;;;;;;20.40;15.00;;;;;;;;;;4401223;32;20045;-70
2022/02/03 17:32:06;;;;;;;20.73;15.73;;;;;;;;;;4399110;32;20171;-69
2022/02/03 17:52:16;;;;;;;21.65;14.57;;;;;;;;;;4395613;32;20038;-68
2022/02/03 17:55:03;;;;;;;20.60;13.73;;;;;;;;;;4397227;32;20085;-70
2022/02/03 18:10:46;;;;;;;16.73;12.75;;;;;;;;;;4405985;32;20044;-69
2022/02/03 18:19:37;;;;;;;19.87;12.85;;;;;;;;;;4397133;32;20057;-70
2022/02/03 18:28:05;;;;;;;19.42;14.65;;;;;;;;;;4402336;32;20052;-69
2022/02/03 18:35:30;;;;;;;20.37;14.13;;;;;;;;;;4389223;32;20085;-69
2022/02/03 18:51:36;;;;;;;23.30;16.60;;;;;;;;;;4405796;32;20049;-69
2022/02/03 18:56:41;;;;;;;21.23;15.95;;;;;;;;;;4403139;32;20420;-69
2022/02/03 19:23:44;;;;;;;31.40;21.00;;;;;;;;;;4390718;32;20061;-70
2022/02/03 19:29:03;;;;;;;34.28;21.20;;;;;;;;;;4396143;32;20041;-70
2022/02/03 19:56:34;;;;;;;31.17;22.25;;;;;;;;;;4405461;32;20113;-70
2022/02/03 19:57:01;;;;;;;31.48;22.27;;;;;;;;;;4393242;32;20099;-69
2022/02/03 20:04:26;;;;;;;34.92;21.65;;;;;;;;;;4401935;32;20046;-70
2022/02/03 20:11:45;;;;;;;35.53;23.40;;;;;;;;;;4403022;32;20328;-68
2022/02/03 20:14:13;;;;;;;35.83;24.42;;;;;;;;;;4399854;32;20398;-70
2022/02/03 20:16:39;;;;;;;36.10;23.65;;;;;;;;;;4403100;32;20056;-70
2022/02/03 20:19:04;;;;;;;;;;;;;;;;;;4404936;32;20040;-70
2022/02/03 20:21:32;;;;;;;39.40;24.70;;;;;;;;;;4406053;32;20312;-70
2022/02/03 20:23:57;;;;;;;36.40;24.42;;;;;;;;;;4405431;32;20044;-70
2022/02/03 20:26:22;;;;;;;;;;;;;;;;;;4408180;32;20022;-69
2022/02/03 20:28:48;;;;;;;35.22;23.87;;;;;;;;;;4401124;32;19951;-69
2022/02/03 20:31:13;;;;;;;;;;;;;;;;;;4391747;32;20050;-69
2022/02/03 20:33:38;;;;;;;37.05;22.55;;;;;;;;;;4390763;32;19946;-69
2022/02/03 20:36:03;;;;;;;;;;;;;;;;;;4393096;32;20019;-72
2022/02/03 20:38:28;;;;;;;35.22;22.87;;;;;;;;;;4394482;32;19934;-69
2022/02/03 20:40:54;;;;;;;;;;;;;;;;;;4392114;32;20022;-70
2022/02/03 20:43:19;;;;;;;39.40;22.70;;;;;;;;;;4400469;32;20368;-70
2022/02/03 20:45:44;;;;;;;;;;;;;;;;;;4405208;32;20531;-69
2022/02/03 20:48:10;;;;;;;37.10;21.25;;;;;;;;;;4395244;32;19968;-70
2022/02/03 20:50:39;;;;;;;;;;;;;;;;;;4392197;32;20126;-69
2022/02/03 20:53:05;;;;;;;36.53;22.17;;;;;;;;;;4393680;32;19977;-70
2022/02/03 20:55:30;;;;;;;;;;;;;;;;;;4390519;32;20046;-68
2022/02/03 20:57:55;;;;;;;35.30;23.08;;;;;;;;;;4389686;32;20298;-71
2022/02/03 21:00:28;;;;;;;;;;;;;;;;;;4390851;32;20432;-69
2022/02/03 21:03:07;;;;;;;38.50;22.33;;;;;;;;;;4393111;32;19948;-69
2022/02/03 21:05:32;;;;;;;38.15;21.42;;;;;;;;;;4378198;32;20019;-68
2022/02/03 21:07:58;;;;;;;;;;;;;;;;;;4390875;32;20052;-71
2022/02/03 21:10:28;;;;;;;37.10;21.95;;;;;;;;;;4391737;32;19979;-69
2022/02/03 21:12:55;;;;;;;32.00;19.90;;;;;;;;;;4391542;32;20345;-70
2022/02/03 21:15:26;;;;;;;37.53;21.95;;;;;;;;;;4393608;32;20046;-69
2022/02/03 21:17:52;;;;;;;32.67;19.87;;;;;;;;;;4404427;32;20371;-68
2022/02/03 21:20:20;;;;;;;32.53;19.40;;;;;;;;;;4412024;32;20138;-70
2022/02/03 21:22:45;;;;;;;30.40;18.67;;;;;;;;;;4420307;32;20411;-69
2022/02/03 21:25:20;;;;;;;;;;;;;;;;;;4420741;32;20044;-70
2022/02/03 21:27:46;;;;;;;31.73;19.80;;;;;;;;;;4418646;32;19955;-71
2022/02/03 21:30:11;;;;;;;;;;;;;;;;;;4406857;32;20030;-70
2022/02/03 21:32:37;;;;;;;32.05;18.12;;;;;;;;;;4406476;32;19983;-70
2022/02/03 21:35:02;;;;;;;;;;;;;;;;;;4405882;32;20097;-70
2022/02/03 21:37:27;;;;;;;29.70;18.12;;;;;;;;;;4405897;32;19946;-71
2022/02/03 21:39:54;;;;;;;;;;;;;;;;;;4405944;32;20045;-70
2022/02/03 21:42:20;;;;;;;33.20;18.27;;;;;;;;;;4396816;32;19937;-69
2022/02/03 21:44:45;;;;;;;;;;;;;;;;;;4392154;32;20053;-71
2022/02/03 21:47:10;;;;;;;34.78;21.48;;;;;;;;;;4389995;32;19938;-70
2022/02/03 21:49:35;;;;;;;;;;;;;;;;;;4390469;32;20050;-69
2022/02/03 21:52:01;;;;;;;34.97;21.17;;;;;;;;;;4390114;32;19934;-70
2022/02/03 21:54:26;;;;;;;;;;;;;;;;;;4390075;32;20074;-72
2022/02/03 21:56:51;;;;;;;36.05;21.90;;;;;;;;;;4407133;32;19933;-71
2022/02/03 21:59:16;;;;;;;;;;;;;;;;;;4419473;32;20068;-72
2022/02/03 22:01:43;;;;;;;39.45;23.10;;;;;;;;;;4420896;32;20291;-70
2022/02/03 22:04:08;;;;;;;36.55;22.52;;;;;;;;;;4396266;32;20196;-70
2022/02/03 22:06:34;;;;;;;;;;;;;;;;;;4390803;32;20027;-70
2022/02/03 22:08:59;;;;;;;38.70;22.90;;;;;;;;;;4403876;32;20323;-70
2022/02/03 22:11:24;;;;;;;;;;;;;;;;;;4396348;32;20111;-71
2022/02/03 22:13:49;;;;;;;37.55;22.20;;;;;;;;;;4395144;32;20346;-70
2022/02/03 22:16:20;;;;;;;;;;;;;;;;;;4390688;32;20622;-71
2022/02/03 22:18:46;;;;;;;39.58;22.50;;;;;;;;;;4390333;32;19953;-69
2022/02/03 22:21:21;;;;;;;;;;;;;;;;;;4389365;32;20061;-70
2022/02/03 22:39:28;;;;;;;48.35;26.52;;;;;;;;;;4403673;32;20080;-69
2022/02/03 22:49:39;;;;;;;;;;;;;;;;;;4404301;32;20076;-70
2022/02/03 22:52:05;;;;;;;40.60;25.80;;;;;;;;;;4405037;32;20334;-70
2022/02/03 22:54:30;;;;;;;;;;;;;;;;;;4405881;32;20037;-70
2022/02/03 22:56:55;;;;;;;44.67;24.33;;;;;;;;;;4405198;32;19977;-69
2022/02/03 23:00:02;;;;;;;;;;;;;;;;;;4405701;32;20039;-70
2022/02/03 23:02:08;;;;;;;39.77;25.13;;;;;;;;;;4403466;32;19930;-72
2022/02/03 23:04:35;;;;;;;;;;;;;;;;;;4390436;32;20042;-70
2022/02/03 23:07:13;;;;;;;40.33;23.40;;;;;;;;;;4391169;32;19942;-70
2022/02/03 23:09:59;;;;;;;39.83;24.00;;;;;;;;;;4389905;32;20129;-69
2022/02/03 23:22:30;;;;;;;39.72;26.35;;;;;;;;;;4392688;32;20019;-69
2022/02/03 23:24:55;;;;;;;;;;;;;;;;;;4394032;32;20428;-71
2022/02/03 23:27:49;;;;;;;46.58;27.48;;;;;;;;;;4397131;32;19997;-70
2022/02/03 23:30:12;;;;;;;41.00;28.67;;;;;;;;;;4407716;32;20053;-68
2022/02/03 23:32:38;;;;;;;;;;;;;;;;;;4407921;32;20113;-69
2022/02/03 23:37:38;;;;;;;43.05;28.80;;;;;;;;;;4408785;32;20060;-70
2022/02/03 23:40:15;;;;;;;43.38;29.00;;;;;;;;;;4409018;32;20419;-69
2022/02/03 23:50:59;;;;;;;39.40;26.87;;;;;;;;;;4407500;32;20022;-69
